sensor_id;sensor_type;location;lat;lon;timestamp;pressure;altitude;pressure_sealevel;temperature;humidity
3960;BME280;1994;48.640;8.894;2023-03-21T00:01:12;96364.53;;;10.14;78.05
3960;BME280;1994;48.640;8.894;2023-03-21T00:03:38;96356.00;;;10.25;77.62
3960;BME280;1994;48.640;8.894;2023-03-21T00:06:07;96352.59;;;10.13;77.66
3960;BME280;1994;48.640;8.894;2023-03-21T00:08:33;96354.88;;;10.21;77.39
3960;BME280;1994;48.640;8.894;2023-03-21T00:11:03;96348.78;;;10.27;77.23
3960;BME280;1994;48.640;8.894;2023-03-21T00:13:29;96344.06;;;10.24;76.87
3960;BME280;1994;48.640;8.894;2023-03-21T00:16:09;96340.22;;;10.15;77.29
3960;BME280;1994;48.640;8.894;2023-03-21T00:18:45;96342.25;;;10.13;77.58
3960;BME280;1994;48.640;8.894;2023-03-21T00:21:16;96334.81;;;10.05;78.09
3960;BME280;1994;48.640;8.894;2023-03-21T00:23:44;96336.81;;;10.03;78.22
3960;BME280;1994;48.640;8.894;2023-03-21T00:26:11;96331.44;;;10.04;78.46
3960;BME280;1994;48.640;8.894;2023-03-21T00:28:38;96331.88;;;10.13;78.17
3960;BME280;1994;48.640;8.894;2023-03-21T00:31:05;96333.50;;;10.14;77.67
3960;BME280;1994;48.640;8.894;2023-03-21T00:33:32;96323.53;;;9.88;78.73
3960;BME280;1994;48.640;8.894;2023-03-21T00:35:59;96316.78;;;9.87;79.02
3960;BME280;1994;48.640;8.894;2023-03-21T00:38:26;96319.69;;;10.02;78.64
3960;BME280;1994;48.640;8.894;2023-03-21T00:40:52;96319.97;;;10.12;78.10
3960;BME280;1994;48.640;8.894;2023-03-21T00:43:18;96323.91;;;10.14;77.79
3960;BME280;1994;48.640;8.894;2023-03-21T00:45:49;96315.47;;;10.19;77.45
3960;BME280;1994;48.640;8.894;2023-03-21T00:48:17;96320.19;;;10.22;77.66
3960;BME280;1994;48.640;8.894;2023-03-21T00:50:44;96316.91;;;10.26;77.28
3960;BME280;1994;48.640;8.894;2023-03-21T00:53:13;96308.38;;;10.26;77.68
3960;BME280;1994;48.640;8.894;2023-03-21T00:55:39;96305.78;;;10.26;77.83
3960;BME280;1994;48.640;8.894;2023-03-21T00:58:06;96312.09;;;10.30;77.41
3960;BME280;1994;48.640;8.894;2023-03-21T01:00:33;96305.31;;;10.29;77.35
3960;BME280;1994;48.640;8.894;2023-03-21T01:03:03;96308.28;;;10.21;77.47
3960;BME280;1994;48.640;8.894;2023-03-21T01:05:45;96305.78;;;10.26;77.17
3960;BME280;1994;48.640;8.894;2023-03-21T01:08:39;96306.22;;;10.23;76.96
3960;BME280;1994;48.640;8.894;2023-03-21T01:11:11;96289.56;;;9.96;77.93
3960;BME280;1994;48.640;8.894;2023-03-21T01:13:37;96291.59;;;9.94;78.14
3960;BME280;1994;48.640;8.894;2023-03-21T01:16:05;96289.69;;;9.89;78.47
3960;BME280;1994;48.640;8.894;2023-03-21T01:18:32;96288.22;;;9.82;78.67
3960;BME280;1994;48.640;8.894;2023-03-21T01:21:00;96287.53;;;9.75;79.31
3960;BME280;1994;48.640;8.894;2023-03-21T01:23:27;96287.06;;;9.78;79.62
3960;BME280;1994;48.640;8.894;2023-03-21T01:25:55;96290.91;;;9.87;79.33
3960;BME280;1994;48.640;8.894;2023-03-21T01:28:25;96293.41;;;10.05;78.44
3960;BME280;1994;48.640;8.894;2023-03-21T01:30:51;96295.00;;;10.06;78.46
3960;BME280;1994;48.640;8.894;2023-03-21T01:33:18;96292.50;;;9.88;79.17
3960;BME280;1994;48.640;8.894;2023-03-21T01:35:44;96293.50;;;9.87;79.50
3960;BME280;1994;48.640;8.894;2023-03-21T01:38:11;96291.91;;;9.74;79.89
3960;BME280;1994;48.640;8.894;2023-03-21T01:40:39;96295.72;;;9.72;80.10
3960;BME280;1994;48.640;8.894;2023-03-21T01:43:35;96294.03;;;9.66;80.72
3960;BME280;1994;48.640;8.894;2023-03-21T01:48:58;96286.75;;;9.74;80.41
3960;BME280;1994;48.640;8.894;2023-03-21T01:51:26;96285.03;;;9.80;79.83
3960;BME280;1994;48.640;8.894;2023-03-21T01:53:53;96280.56;;;9.87;79.82
3960;BME280;1994;48.640;8.894;2023-03-21T01:56:35;96277.97;;;9.87;79.24
3960;BME280;1994;48.640;8.894;2023-03-21T01:59:12;96269.97;;;9.88;79.37
3960;BME280;1994;48.640;8.894;2023-03-21T02:01:39;96267.03;;;9.62;80.39
3960;BME280;1994;48.640;8.894;2023-03-21T02:04:07;96277.19;;;9.75;80.13
3960;BME280;1994;48.640;8.894;2023-03-21T02:09:13;96272.09;;;9.80;79.63
3960;BME280;1994;48.640;8.894;2023-03-21T02:11:39;96281.91;;;9.78;79.72
3960;BME280;1994;48.640;8.894;2023-03-21T02:14:05;96273.94;;;9.79;79.34
3960;BME280;1994;48.640;8.894;2023-03-21T02:16:49;96269.53;;;9.80;79.36
3960;BME280;1994;48.640;8.894;2023-03-21T02:22:32;96267.50;;;9.82;79.34
3960;BME280;1994;48.640;8.894;2023-03-21T02:25:34;96270.22;;;9.87;78.88
3960;BME280;1994;48.640;8.894;2023-03-21T02:28:41;96263.47;;;9.86;78.74
3960;BME280;1994;48.640;8.894;2023-03-21T02:40:49;96264.56;;;9.44;80.66
3960;BME280;1994;48.640;8.894;2023-03-21T02:43:29;96260.28;;;9.38;81.35
3960;BME280;1994;48.640;8.894;2023-03-21T02:46:15;96260.28;;;9.38;81.54
3960;BME280;1994;48.640;8.894;2023-03-21T02:49:36;96256.69;;;9.39;81.69
3960;BME280;1994;48.640;8.894;2023-03-21T02:52:07;96253.53;;;9.37;82.00
3960;BME280;1994;48.640;8.894;2023-03-21T02:54:36;96272.38;;;9.26;82.40
3960;BME280;1994;48.640;8.894;2023-03-21T02:57:03;96267.09;;;9.21;83.20
3960;BME280;1994;48.640;8.894;2023-03-21T02:59:31;96267.91;;;9.33;82.48
3960;BME280;1994;48.640;8.894;2023-03-21T03:01:58;96264.63;;;9.26;82.87
3960;BME280;1994;48.640;8.894;2023-03-21T03:04:27;96258.31;;;9.22;82.99
3960;BME280;1994;48.640;8.894;2023-03-21T03:16:38;96245.19;;;9.35;82.48
3960;BME280;1994;48.640;8.894;2023-03-21T03:19:10;96249.13;;;9.37;82.09
3960;BME280;1994;48.640;8.894;2023-03-21T03:24:41;96244.06;;;9.31;81.97
3960;BME280;1994;48.640;8.894;2023-03-21T03:27:20;96248.78;;;9.34;82.12
3960;BME280;1994;48.640;8.894;2023-03-21T03:29:50;96243.84;;;9.21;82.45
3960;BME280;1994;48.640;8.894;2023-03-21T03:32:25;96245.16;;;9.12;83.15
3960;BME280;1994;48.640;8.894;2023-03-21T03:34:55;96242.00;;;9.10;83.26
3960;BME280;1994;48.640;8.894;2023-03-21T03:37:30;96237.94;;;9.14;82.98
3960;BME280;1994;48.640;8.894;2023-03-21T03:40:47;96247.94;;;9.10;83.23
3960;BME280;1994;48.640;8.894;2023-03-21T03:42:55;96238.84;;;9.08;83.10
3960;BME280;1994;48.640;8.894;2023-03-21T03:45:31;96243.44;;;9.06;83.15
3960;BME280;1994;48.640;8.894;2023-03-21T03:48:20;96242.19;;;8.97;83.18
3960;BME280;1994;48.640;8.894;2023-03-21T03:51:10;96240.19;;;8.99;82.95
3960;BME280;1994;48.640;8.894;2023-03-21T03:53:55;96232.72;;;8.91;83.33
3960;BME280;1994;48.640;8.894;2023-03-21T03:56:27;96221.69;;;8.84;83.44
3960;BME280;1994;48.640;8.894;2023-03-21T03:58:56;96224.16;;;8.79;83.87
3960;BME280;1994;48.640;8.894;2023-03-21T04:01:22;96226.19;;;8.77;83.63
3960;BME280;1994;48.640;8.894;2023-03-21T04:03:48;96230.19;;;8.73;83.78
3960;BME280;1994;48.640;8.894;2023-03-21T04:06:18;96223.88;;;8.69;83.66
3960;BME280;1994;48.640;8.894;2023-03-21T04:08:44;96245.34;;;8.51;84.53
3960;BME280;1994;48.640;8.894;2023-03-21T04:11:13;96235.69;;;8.47;84.72
3960;BME280;1994;48.640;8.894;2023-03-21T04:13:40;96235.56;;;8.42;85.00
3960;BME280;1994;48.640;8.894;2023-03-21T04:16:07;96235.00;;;8.40;85.04
3960;BME280;1994;48.640;8.894;2023-03-21T04:18:33;96230.25;;;8.37;85.77
3960;BME280;1994;48.640;8.894;2023-03-21T04:20:59;96232.25;;;8.35;85.75
3960;BME280;1994;48.640;8.894;2023-03-21T04:23:25;96236.97;;;8.38;85.58
3960;BME280;1994;48.640;8.894;2023-03-21T04:25:54;96227.81;;;8.42;85.61
3960;BME280;1994;48.640;8.894;2023-03-21T04:28:20;96215.59;;;8.49;84.98
3960;BME280;1994;48.640;8.894;2023-03-21T04:30:47;96217.81;;;8.45;85.17
3960;BME280;1994;48.640;8.894;2023-03-21T04:33:14;96228.25;;;8.39;85.21
3960;BME280;1994;48.640;8.894;2023-03-21T04:35:40;96229.53;;;8.30;86.00
3960;BME280;1994;48.640;8.894;2023-03-21T04:38:07;96233.91;;;8.29;86.38
3960;BME280;1994;48.640;8.894;2023-03-21T04:40:35;96233.69;;;8.31;86.11
3960;BME280;1994;48.640;8.894;2023-03-21T04:43:01;96230.25;;;8.37;86.17
3960;BME280;1994;48.640;8.894;2023-03-21T04:45:27;96232.06;;;8.36;86.04
3960;BME280;1994;48.640;8.894;2023-03-21T04:47:53;96231.41;;;8.41;85.91
3960;BME280;1994;48.640;8.894;2023-03-21T04:50:19;96230.38;;;8.42;86.03
3960;BME280;1994;48.640;8.894;2023-03-21T04:52:47;96221.41;;;8.44;85.51
3960;BME280;1994;48.640;8.894;2023-03-21T04:55:13;96227.00;;;8.41;85.44
3960;BME280;1994;48.640;8.894;2023-03-21T04:57:39;96225.56;;;8.45;85.54
3960;BME280;1994;48.640;8.894;2023-03-21T05:00:09;96231.41;;;8.41;85.41
3960;BME280;1994;48.640;8.894;2023-03-21T05:02:36;96225.69;;;8.39;85.76
3960;BME280;1994;48.640;8.894;2023-03-21T05:05:03;96233.41;;;8.39;85.69
3960;BME280;1994;48.640;8.894;2023-03-21T05:07:29;96231.41;;;8.41;85.36
3960;BME280;1994;48.640;8.894;2023-03-21T05:09:57;96234.25;;;8.33;85.85
3960;BME280;1994;48.640;8.894;2023-03-21T05:12:23;96237.13;;;8.25;85.94
3960;BME280;1994;48.640;8.894;2023-03-21T05:14:48;96235.97;;;8.21;86.24
3960;BME280;1994;48.640;8.894;2023-03-21T05:17:14;96236.06;;;8.14;86.29
3960;BME280;1994;48.640;8.894;2023-03-21T05:19:50;96236.81;;;8.15;86.17
3960;BME280;1994;48.640;8.894;2023-03-21T05:22:18;96231.97;;;8.25;85.67
3960;BME280;1994;48.640;8.894;2023-03-21T05:24:45;96231.97;;;8.25;85.73
3960;BME280;1994;48.640;8.894;2023-03-21T05:27:18;96236.56;;;8.23;86.04
3960;BME280;1994;48.640;8.894;2023-03-21T05:30:06;96229.81;;;8.22;86.00
3960;BME280;1994;48.640;8.894;2023-03-21T05:32:33;96233.75;;;8.24;85.95
3960;BME280;1994;48.640;8.894;2023-03-21T05:34:59;96232.13;;;8.30;85.78
3960;BME280;1994;48.640;8.894;2023-03-21T05:37:25;96236.28;;;8.31;85.41
3960;BME280;1994;48.640;8.894;2023-03-21T05:39:51;96231.97;;;8.25;85.86
3960;BME280;1994;48.640;8.894;2023-03-21T05:42:17;96235.97;;;8.21;85.92
3960;BME280;1994;48.640;8.894;2023-03-21T05:44:44;96234.69;;;8.30;85.71
3960;BME280;1994;48.640;8.894;2023-03-21T05:47:13;96235.56;;;8.24;86.10
3960;BME280;1994;48.640;8.894;2023-03-21T05:49:39;96231.63;;;8.21;86.41
3960;BME280;1994;48.640;8.894;2023-03-21T05:52:05;96232.25;;;8.35;85.73
3960;BME280;1994;48.640;8.894;2023-03-21T05:54:31;96240.56;;;8.37;85.49
3960;BME280;1994;48.640;8.894;2023-03-21T05:57:00;96242.88;;;8.45;85.16
3960;BME280;1994;48.640;8.894;2023-03-21T05:59:26;96236.09;;;8.44;84.60
3960;BME280;1994;48.640;8.894;2023-03-21T06:01:52;96245.66;;;8.43;84.73
3960;BME280;1994;48.640;8.894;2023-03-21T06:04:17;96244.31;;;8.41;84.35
3960;BME280;1994;48.640;8.894;2023-03-21T06:06:43;96238.78;;;8.37;84.47
3960;BME280;1994;48.640;8.894;2023-03-21T06:09:09;96246.09;;;8.40;84.35
3960;BME280;1994;48.640;8.894;2023-03-21T06:11:37;96237.13;;;8.43;84.34
3960;BME280;1994;48.640;8.894;2023-03-21T06:14:03;96241.13;;;8.57;84.11
3960;BME280;1994;48.640;8.894;2023-03-21T06:16:29;96238.69;;;8.62;83.94
3960;BME280;1994;48.640;8.894;2023-03-21T06:18:55;96233.06;;;8.65;83.83
3960;BME280;1994;48.640;8.894;2023-03-21T06:21:21;96243.66;;;8.75;82.98
3960;BME280;1994;48.640;8.894;2023-03-21T06:23:47;96241.50;;;8.90;82.54
3960;BME280;1994;48.640;8.894;2023-03-21T06:26:16;96224.22;;;9.02;81.89
3960;BME280;1994;48.640;8.894;2023-03-21T06:28:50;96232.09;;;9.07;81.41
3960;BME280;1994;48.640;8.894;2023-03-21T06:31:19;96238.50;;;9.04;81.28
3960;BME280;1994;48.640;8.894;2023-03-21T06:33:48;96239.28;;;9.05;81.18
3960;BME280;1994;48.640;8.894;2023-03-21T06:36:14;96234.25;;;9.10;80.26
3960;BME280;1994;48.640;8.894;2023-03-21T06:38:40;96233.53;;;8.91;81.66
3960;BME280;1994;48.640;8.894;2023-03-21T06:41:07;96230.47;;;8.83;82.50
3960;BME280;1994;48.640;8.894;2023-03-21T06:43:33;96228.69;;;8.95;82.25
3960;BME280;1994;48.640;8.894;2023-03-21T06:46:00;96229.25;;;8.85;83.09
3960;BME280;1994;48.640;8.894;2023-03-21T06:48:30;96234.69;;;9.07;82.13
3960;BME280;1994;48.640;8.894;2023-03-21T06:50:59;96234.28;;;8.92;81.90
3960;BME280;1994;48.640;8.894;2023-03-21T06:53:25;96232.66;;;8.68;82.92
3960;BME280;1994;48.640;8.894;2023-03-21T06:55:55;96237.63;;;8.81;82.74
3960;BME280;1994;48.640;8.894;2023-03-21T06:58:23;96227.75;;;8.78;83.36
3960;BME280;1994;48.640;8.894;2023-03-21T07:00:49;96227.28;;;8.81;83.83
3960;BME280;1994;48.640;8.894;2023-03-21T07:03:15;96224.56;;;9.05;82.55
3960;BME280;1994;48.640;8.894;2023-03-21T07:05:42;96217.09;;;9.27;81.90
3960;BME280;1994;48.640;8.894;2023-03-21T07:08:08;96219.56;;;9.33;80.31
3960;BME280;1994;48.640;8.894;2023-03-21T07:10:41;96219.59;;;9.45;80.58
3960;BME280;1994;48.640;8.894;2023-03-21T07:13:08;96211.59;;;9.58;79.88
3960;BME280;1994;48.640;8.894;2023-03-21T07:15:33;96221.16;;;9.46;80.36
3960;BME280;1994;48.640;8.894;2023-03-21T07:18:07;96225.66;;;9.62;79.17
3960;BME280;1994;48.640;8.894;2023-03-21T07:20:34;96228.22;;;9.39;78.31
3960;BME280;1994;48.640;8.894;2023-03-21T07:23:00;96227.00;;;9.53;79.63
3960;BME280;1994;48.640;8.894;2023-03-21T07:25:26;96224.66;;;9.74;78.51
3960;BME280;1994;48.640;8.894;2023-03-21T07:27:52;96225.31;;;9.81;78.42
3960;BME280;1994;48.640;8.894;2023-03-21T07:30:18;96228.47;;;9.72;79.68
3960;BME280;1994;48.640;8.894;2023-03-21T07:32:44;96236.47;;;9.59;80.15
3960;BME280;1994;48.640;8.894;2023-03-21T07:35:15;96226.69;;;10.07;78.82
3960;BME280;1994;48.640;8.894;2023-03-21T07:37:42;96230.09;;;10.47;76.71
3960;BME280;1994;48.640;8.894;2023-03-21T07:40:10;96225.13;;;10.85;75.21
3960;BME280;1994;48.640;8.894;2023-03-21T07:42:39;96221.16;;;11.10;72.97
3960;BME280;1994;48.640;8.894;2023-03-21T07:45:06;96224.47;;;11.22;72.71
3960;BME280;1994;48.640;8.894;2023-03-21T07:47:34;96225.28;;;11.23;72.28
3960;BME280;1994;48.640;8.894;2023-03-21T07:50:00;96217.91;;;11.31;72.56
3960;BME280;1994;48.640;8.894;2023-03-21T07:52:26;96224.34;;;11.29;71.77
3960;BME280;1994;48.640;8.894;2023-03-21T07:54:52;96226.97;;;11.62;71.95
3960;BME280;1994;48.640;8.894;2023-03-21T07:57:18;96222.91;;;12.04;71.25
3960;BME280;1994;48.640;8.894;2023-03-21T07:59:43;96223.06;;;12.19;68.37
3960;BME280;1994;48.640;8.894;2023-03-21T08:02:14;96220.75;;;12.39;68.93
3960;BME280;1994;48.640;8.894;2023-03-21T08:04:40;96224.19;;;12.23;68.59
3960;BME280;1994;48.640;8.894;2023-03-21T08:07:06;96231.22;;;12.06;69.71
3960;BME280;1994;48.640;8.894;2023-03-21T08:09:32;96226.38;;;11.93;70.12
3960;BME280;1994;48.640;8.894;2023-03-21T08:11:58;96228.31;;;12.40;70.73
3960;BME280;1994;48.640;8.894;2023-03-21T08:14:23;96226.91;;;12.33;68.14
3960;BME280;1994;48.640;8.894;2023-03-21T08:16:55;96216.34;;;13.09;66.19
3960;BME280;1994;48.640;8.894;2023-03-21T08:19:21;96225.00;;;14.24;60.85
3960;BME280;1994;48.640;8.894;2023-03-21T08:21:48;96218.22;;;14.23;60.91
3960;BME280;1994;48.640;8.894;2023-03-21T08:24:15;96215.34;;;14.91;57.93
3960;BME280;1994;48.640;8.894;2023-03-21T08:26:41;96214.28;;;14.97;58.72
3960;BME280;1994;48.640;8.894;2023-03-21T08:29:09;96214.41;;;15.37;58.00
3960;BME280;1994;48.640;8.894;2023-03-21T08:31:34;96212.41;;;14.16;59.42
3960;BME280;1994;48.640;8.894;2023-03-21T08:34:01;96211.06;;;14.65;58.88
3960;BME280;1994;48.640;8.894;2023-03-21T08:36:26;96207.59;;;15.66;56.79
3960;BME280;1994;48.640;8.894;2023-03-21T08:38:55;96214.91;;;16.67;53.61
3960;BME280;1994;48.640;8.894;2023-03-21T08:41:22;96208.28;;;17.67;50.85
3960;BME280;1994;48.640;8.894;2023-03-21T08:43:49;96208.69;;;17.07;49.73
3960;BME280;1994;48.640;8.894;2023-03-21T08:46:15;96208.63;;;15.80;53.88
3960;BME280;1994;48.640;8.894;2023-03-21T08:48:41;96206.03;;;15.40;54.11
3960;BME280;1994;48.640;8.894;2023-03-21T08:51:07;96207.06;;;15.34;55.84
3960;BME280;1994;48.640;8.894;2023-03-21T08:53:33;96208.84;;;16.77;53.38
3960;BME280;1994;48.640;8.894;2023-03-21T08:55:59;96206.19;;;17.92;48.16
3960;BME280;1994;48.640;8.894;2023-03-21T08:58:25;96202.31;;;18.42;46.42
3960;BME280;1994;48.640;8.894;2023-03-21T09:00:51;96195.13;;;17.72;46.56
3960;BME280;1994;48.640;8.894;2023-03-21T09:03:17;96198.47;;;18.29;44.37
3960;BME280;1994;48.640;8.894;2023-03-21T09:05:44;96201.97;;;18.67;42.13
3960;BME280;1994;48.640;8.894;2023-03-21T09:08:11;96198.13;;;19.01;42.55
3960;BME280;1994;48.640;8.894;2023-03-21T09:10:40;96206.41;;;18.90;41.08
3960;BME280;1994;48.640;8.894;2023-03-21T09:13:06;96211.75;;;19.40;41.74
3960;BME280;1994;48.640;8.894;2023-03-21T09:15:32;96201.94;;;18.90;42.96
3960;BME280;1994;48.640;8.894;2023-03-21T09:17:59;96203.56;;;19.05;43.54
3960;BME280;1994;48.640;8.894;2023-03-21T09:20:38;96207.00;;;19.88;42.81
3960;BME280;1994;48.640;8.894;2023-03-21T09:23:05;96193.94;;;19.69;42.03
3960;BME280;1994;48.640;8.894;2023-03-21T09:25:31;96201.19;;;19.59;41.57
3960;BME280;1994;48.640;8.894;2023-03-21T09:28:01;96201.03;;;19.37;42.91
3960;BME280;1994;48.640;8.894;2023-03-21T09:30:34;96192.72;;;18.04;44.71
3960;BME280;1994;48.640;8.894;2023-03-21T09:33:02;96191.19;;;17.74;44.74
3960;BME280;1994;48.640;8.894;2023-03-21T09:35:31;96185.38;;;17.49;45.81
3960;BME280;1994;48.640;8.894;2023-03-21T09:37:57;96186.47;;;18.00;44.70
3960;BME280;1994;48.640;8.894;2023-03-21T09:47:19;96197.50;;;17.40;45.75
3960;BME280;1994;48.640;8.894;2023-03-21T09:50:13;96193.31;;;17.34;45.91
3960;BME280;1994;48.640;8.894;2023-03-21T09:55:36;96190.88;;;17.09;46.93
3960;BME280;1994;48.640;8.894;2023-03-21T09:58:27;96182.13;;;17.62;45.33
3960;BME280;1994;48.640;8.894;2023-03-21T10:01:17;96189.66;;;17.35;46.67
3960;BME280;1994;48.640;8.894;2023-03-21T10:04:04;96192.44;;;17.10;46.91
3960;BME280;1994;48.640;8.894;2023-03-21T10:06:32;96181.31;;;16.89;48.58
3960;BME280;1994;48.640;8.894;2023-03-21T10:09:06;96175.88;;;16.81;50.25
3960;BME280;1994;48.640;8.894;2023-03-21T10:11:51;96176.09;;;16.89;49.07
3960;BME280;1994;48.640;8.894;2023-03-21T10:14:51;96171.59;;;17.00;49.64
3960;BME280;1994;48.640;8.894;2023-03-21T10:17:32;96178.06;;;16.64;49.77
3960;BME280;1994;48.640;8.894;2023-03-21T10:22:46;96178.63;;;16.56;49.96
3960;BME280;1994;48.640;8.894;2023-03-21T10:25:20;96165.28;;;16.52;51.05
3960;BME280;1994;48.640;8.894;2023-03-21T10:27:47;96170.22;;;16.64;50.24
3960;BME280;1994;48.640;8.894;2023-03-21T10:30:40;96171.47;;;16.03;51.95
3960;BME280;1994;48.640;8.894;2023-03-21T10:33:22;96164.19;;;15.85;52.42
3960;BME280;1994;48.640;8.894;2023-03-21T10:36:30;96162.63;;;15.84;52.72
3960;BME280;1994;48.640;8.894;2023-03-21T10:39:07;96164.19;;;15.85;52.37
3960;BME280;1994;48.640;8.894;2023-03-21T10:41:37;96162.59;;;16.04;52.06
3960;BME280;1994;48.640;8.894;2023-03-21T10:44:17;96164.69;;;16.02;53.03
3960;BME280;1994;48.640;8.894;2023-03-21T10:46:55;96163.66;;;15.98;51.76
3960;BME280;1994;48.640;8.894;2023-03-21T10:49:22;96157.47;;;15.64;52.62
3960;BME280;1994;48.640;8.894;2023-03-21T10:51:54;96158.50;;;15.68;52.75
3960;BME280;1994;48.640;8.894;2023-03-21T10:54:25;96163.75;;;15.48;52.95
3960;BME280;1994;48.640;8.894;2023-03-21T10:57:09;96162.16;;;15.57;52.35
3960;BME280;1994;48.640;8.894;2023-03-21T10:59:58;96163.69;;;15.88;52.73
3960;BME280;1994;48.640;8.894;2023-03-21T11:02:34;96157.97;;;15.81;52.11
3960;BME280;1994;48.640;8.894;2023-03-21T11:05:52;96155.34;;;15.76;51.49
3960;BME280;1994;48.640;8.894;2023-03-21T11:08:18;96153.75;;;15.85;52.32
3960;BME280;1994;48.640;8.894;2023-03-21T11:11:08;96149.50;;;16.09;50.94
3960;BME280;1994;48.640;8.894;2023-03-21T11:13:42;96156.97;;;16.35;49.03
3960;BME280;1994;48.640;8.894;2023-03-21T11:16:30;96154.28;;;15.92;50.57
3960;BME280;1994;48.640;8.894;2023-03-21T11:19:09;96150.16;;;15.41;51.09
3960;BME280;1994;48.640;8.894;2023-03-21T11:21:37;96146.97;;;15.74;51.23
3960;BME280;1994;48.640;8.894;2023-03-21T11:24:04;96148.03;;;15.78;51.00
3960;BME280;1994;48.640;8.894;2023-03-21T11:26:36;96150.13;;;15.81;50.95
3960;BME280;1994;48.640;8.894;2023-03-21T11:29:37;96139.72;;;15.16;51.84
3960;BME280;1994;48.640;8.894;2023-03-21T11:32:19;96137.13;;;15.41;52.48
3960;BME280;1994;48.640;8.894;2023-03-21T11:35:18;96140.75;;;15.60;51.16
3960;BME280;1994;48.640;8.894;2023-03-21T11:37:46;96133.19;;;15.58;50.66
3960;BME280;1994;48.640;8.894;2023-03-21T11:40:29;96131.38;;;15.54;49.45
3960;BME280;1994;48.640;8.894;2023-03-21T11:46:00;96126.41;;;15.47;47.84
3960;BME280;1994;48.640;8.894;2023-03-21T11:48:41;96116.50;;;15.24;48.35
3960;BME280;1994;48.640;8.894;2023-03-21T11:51:40;96113.13;;;15.39;49.13
3960;BME280;1994;48.640;8.894;2023-03-21T12:05:42;96108.94;;;16.26;47.05
3960;BME280;1994;48.640;8.894;2023-03-21T12:14:33;96080.13;;;16.41;45.63
3960;BME280;1994;48.640;8.894;2023-03-21T12:16:55;96088.88;;;16.12;44.82
3960;BME280;1994;48.640;8.894;2023-03-21T12:20:15;96080.53;;;16.05;45.96
3960;BME280;1994;48.640;8.894;2023-03-21T12:23:07;96069.97;;;16.40;45.37
3960;BME280;1994;48.640;8.894;2023-03-21T12:31:58;96054.31;;;17.02;42.68
3960;BME280;1994;48.640;8.894;2023-03-21T12:35:01;96052.31;;;17.51;41.60
3960;BME280;1994;48.640;8.894;2023-03-21T12:38:20;96052.66;;;17.68;41.69
3960;BME280;1994;48.640;8.894;2023-03-21T12:41:32;96048.50;;;18.09;41.76
3960;BME280;1994;48.640;8.894;2023-03-21T12:44:15;96049.19;;;18.38;42.00
3960;BME280;1994;48.640;8.894;2023-03-21T12:46:46;96045.84;;;17.90;40.44
3960;BME280;1994;48.640;8.894;2023-03-21T12:49:36;96045.00;;;17.48;42.16
3960;BME280;1994;48.640;8.894;2023-03-21T12:52:15;96045.97;;;17.57;41.75
3960;BME280;1994;48.640;8.894;2023-03-21T12:54:50;96040.56;;;17.72;41.59
3960;BME280;1994;48.640;8.894;2023-03-21T12:57:36;96036.25;;;17.81;41.86
3960;BME280;1994;48.640;8.894;2023-03-21T13:03:09;96040.59;;;18.51;41.49
3960;BME280;1994;48.640;8.894;2023-03-21T13:06:01;96039.28;;;18.30;41.34
3960;BME280;1994;48.640;8.894;2023-03-21T13:08:54;96034.81;;;17.70;42.70
3960;BME280;1994;48.640;8.894;2023-03-21T13:11:24;96026.94;;;18.12;41.08
3960;BME280;1994;48.640;8.894;2023-03-21T13:14:44;96025.13;;;18.31;41.48
3960;BME280;1994;48.640;8.894;2023-03-21T13:17:18;96025.09;;;17.94;41.57
3960;BME280;1994;48.640;8.894;2023-03-21T13:19:55;96019.84;;;17.94;41.45
3960;BME280;1994;48.640;8.894;2023-03-21T13:22:28;96019.66;;;17.90;42.74
3960;BME280;1994;48.640;8.894;2023-03-21T13:25:27;96019.78;;;17.57;42.65
3960;BME280;1994;48.640;8.894;2023-03-21T13:27:59;96021.81;;;17.36;42.98
3960;BME280;1994;48.640;8.894;2023-03-21T13:30:28;96018.41;;;17.36;42.71
3960;BME280;1994;48.640;8.894;2023-03-21T13:35:36;96015.81;;;17.31;41.59
3960;BME280;1994;48.640;8.894;2023-03-21T13:38:14;96006.81;;;17.18;40.86
3960;BME280;1994;48.640;8.894;2023-03-21T13:54:16;95979.06;;;17.17;42.35
3960;BME280;1994;48.640;8.894;2023-03-21T14:04:41;95981.09;;;16.97;42.28
3960;BME280;1994;48.640;8.894;2023-03-21T14:07:16;95978.84;;;17.14;42.14
3960;BME280;1994;48.640;8.894;2023-03-21T14:09:51;95976.16;;;17.19;41.65
3960;BME280;1994;48.640;8.894;2023-03-21T14:12:28;95975.50;;;17.32;41.87
3960;BME280;1994;48.640;8.894;2023-03-21T14:17:34;95967.81;;;17.17;41.05
3960;BME280;1994;48.640;8.894;2023-03-21T14:20:13;95965.94;;;17.46;40.15
3960;BME280;1994;48.640;8.894;2023-03-21T14:22:40;95974.03;;;17.21;40.88
3960;BME280;1994;48.640;8.894;2023-03-21T14:25:11;95973.59;;;17.14;40.59
3960;BME280;1994;48.640;8.894;2023-03-21T14:27:49;95970.50;;;17.12;40.35
3960;BME280;1994;48.640;8.894;2023-03-21T14:30:37;95973.88;;;17.36;41.35
3960;BME280;1994;48.640;8.894;2023-03-21T14:35:58;95958.38;;;17.44;40.00
3960;BME280;1994;48.640;8.894;2023-03-21T14:38:34;95954.63;;;17.27;40.26
3960;BME280;1994;48.640;8.894;2023-03-21T14:41:00;95958.16;;;17.41;40.19
3960;BME280;1994;48.640;8.894;2023-03-21T14:43:27;95956.25;;;17.23;39.73
3960;BME280;1994;48.640;8.894;2023-03-21T14:45:55;95955.66;;;17.26;40.10
3960;BME280;1994;48.640;8.894;2023-03-21T14:48:33;95951.13;;;17.36;39.45
3960;BME280;1994;48.640;8.894;2023-03-21T14:51:06;95944.66;;;17.29;39.79
3960;BME280;1994;48.640;8.894;2023-03-21T14:53:40;95944.25;;;17.64;38.99
3960;BME280;1994;48.640;8.894;2023-03-21T14:56:22;95938.53;;;17.62;39.70
3960;BME280;1994;48.640;8.894;2023-03-21T14:58:51;95941.91;;;17.44;39.25
3960;BME280;1994;48.640;8.894;2023-03-21T15:01:30;95940.06;;;17.63;39.41
3960;BME280;1994;48.640;8.894;2023-03-21T15:03:59;95942.06;;;17.71;39.00
3960;BME280;1994;48.640;8.894;2023-03-21T15:06:26;95944.31;;;17.59;39.39
3960;BME280;1994;48.640;8.894;2023-03-21T15:09:01;95931.84;;;17.51;40.41
3960;BME280;1994;48.640;8.894;2023-03-21T15:11:34;95934.63;;;17.59;40.13
3960;BME280;1994;48.640;8.894;2023-03-21T15:14:08;95935.66;;;17.40;39.99
3960;BME280;1994;48.640;8.894;2023-03-21T15:16:37;95942.31;;;17.27;39.46
3960;BME280;1994;48.640;8.894;2023-03-21T15:19:04;95927.59;;;17.08;40.43
3960;BME280;1994;48.640;8.894;2023-03-21T15:21:40;95930.28;;;17.26;39.74
3960;BME280;1994;48.640;8.894;2023-03-21T15:24:17;95937.84;;;17.28;40.35
3960;BME280;1994;48.640;8.894;2023-03-21T15:26:47;95930.97;;;17.13;40.84
3960;BME280;1994;48.640;8.894;2023-03-21T15:29:14;95936.53;;;17.07;41.66
3960;BME280;1994;48.640;8.894;2023-03-21T15:31:41;95939.19;;;17.25;37.62
3960;BME280;1994;48.640;8.894;2023-03-21T15:34:19;95931.97;;;17.41;34.84
3960;BME280;1994;48.640;8.894;2023-03-21T15:36:48;95933.91;;;17.54;34.30
3960;BME280;1994;48.640;8.894;2023-03-21T15:39:16;95939.91;;;17.54;33.76